sensor_id;sensor_type;location;lat;lon;timestamp;P1;durP1;ratioP1;P2;durP2;ratioP2
65368;SDS011;51970;53.484;49.488;2022-10-24T00:02:05;15.40;;;6.50;;
65368;SDS011;51970;53.484;49.488;2022-10-24T00:04:36;14.25;;;9.73;;
65368;SDS011;51970;53.484;49.488;2022-10-24T00:07:04;13.95;;;9.65;;
65368;SDS011;51970;53.484;49.488;2022-10-24T00:09:32;15.15;;;9.88;;
65368;SDS011;51970;53.484;49.488;2022-10-24T00:11:59;19.52;;;9.90;;
65368;SDS011;51970;53.484;49.488;2022-10-24T00:14:25;14.70;;;11.35;;
65368;SDS011;51970;53.484;49.488;2022-10-24T00:16:52;15.10;;;7.40;;
65368;SDS011;51970;53.484;49.488;2022-10-24T00:19:18;16.08;;;9.82;;
65368;SDS011;51970;53.484;49.488;2022-10-24T00:21:44;15.02;;;10.50;;
65368;SDS011;51970;53.484;49.488;2022-10-24T00:24:11;15.68;;;9.60;;
65368;SDS011;51970;53.484;49.488;2022-10-24T00:26:37;15.90;;;11.02;;
65368;SDS011;51970;53.484;49.488;2022-10-24T00:29:03;16.27;;;11.13;;
65368;SDS011;51970;53.484;49.488;2022-10-24T00:31:29;14.52;;;10.02;;
65368;SDS011;51970;53.484;49.488;2022-10-24T00:33:56;13.38;;;9.40;;
65368;SDS011;51970;53.484;49.488;2022-10-24T00:36:24;15.10;;;10.80;;
65368;SDS011;51970;53.484;49.488;2022-10-24T00:38:52;20.67;;;10.25;;
65368;SDS011;51970;53.484;49.488;2022-10-24T00:41:22;14.93;;;9.20;;
65368;SDS011;51970;53.484;49.488;2022-10-24T00:43:50;13.13;;;9.75;;
65368;SDS011;51970;53.484;49.488;2022-10-24T00:46:36;13.10;;;9.13;;
65368;SDS011;51970;53.484;49.488;2022-10-24T00:49:03;14.70;;;9.52;;
65368;SDS011;51970;53.484;49.488;2022-10-24T00:51:30;13.98;;;9.80;;
65368;SDS011;51970;53.484;49.488;2022-10-24T00:53:59;13.80;;;9.48;;
65368;SDS011;51970;53.484;49.488;2022-10-24T00:56:29;19.00;;;10.13;;
65368;SDS011;51970;53.484;49.488;2022-10-24T00:58:59;14.70;;;10.20;;
65368;SDS011;51970;53.484;49.488;2022-10-24T01:01:27;17.63;;;11.57;;
65368;SDS011;51970;53.484;49.488;2022-10-24T01:03:53;14.77;;;8.00;;
65368;SDS011;51970;53.484;49.488;2022-10-24T01:14:43;14.23;;;9.57;;
65368;SDS011;51970;53.484;49.488;2022-10-24T01:17:14;15.98;;;11.15;;
65368;SDS011;51970;53.484;49.488;2022-10-24T01:20:10;14.05;;;9.90;;
65368;SDS011;51970;53.484;49.488;2022-10-24T01:22:57;14.02;;;10.10;;
65368;SDS011;51970;53.484;49.488;2022-10-24T01:35:02;13.43;;;9.15;;
65368;SDS011;51970;53.484;49.488;2022-10-24T01:40:53;15.60;;;10.40;;
65368;SDS011;51970;53.484;49.488;2022-10-24T01:43:25;19.77;;;10.95;;
65368;SDS011;51970;53.484;49.488;2022-10-24T01:45:57;11.02;;;8.50;;
65368;SDS011;51970;53.484;49.488;2022-10-24T01:48:27;17.67;;;10.35;;
65368;SDS011;51970;53.484;49.488;2022-10-24T01:50:56;15.45;;;10.60;;
65368;SDS011;51970;53.484;49.488;2022-10-24T01:53:25;13.00;;;9.82;;
65368;SDS011;51970;53.484;49.488;2022-10-24T01:55:54;12.85;;;9.65;;
65368;SDS011;51970;53.484;49.488;2022-10-24T01:58:21;14.68;;;10.52;;
65368;SDS011;51970;53.484;49.488;2022-10-24T02:00:47;14.00;;;10.43;;
65368;SDS011;51970;53.484;49.488;2022-10-24T02:03:28;14.50;;;11.15;;
65368;SDS011;51970;53.484;49.488;2022-10-24T02:06:01;14.25;;;10.65;;
65368;SDS011;51970;53.484;49.488;2022-10-24T02:08:33;14.80;;;11.82;;
65368;SDS011;51970;53.484;49.488;2022-10-24T02:11:03;16.67;;;11.25;;
65368;SDS011;51970;53.484;49.488;2022-10-24T02:13:36;16.05;;;11.20;;
65368;SDS011;51970;53.484;49.488;2022-10-24T02:16:16;15.20;;;9.20;;
65368;SDS011;51970;53.484;49.488;2022-10-24T02:18:44;14.05;;;11.13;;
65368;SDS011;51970;53.484;49.488;2022-10-24T02:21:23;14.23;;;9.77;;
65368;SDS011;51970;53.484;49.488;2022-10-24T02:24:27;14.18;;;10.52;;
65368;SDS011;51970;53.484;49.488;2022-10-24T02:32:16;17.85;;;8.95;;
65368;SDS011;51970;53.484;49.488;2022-10-24T02:34:47;12.95;;;8.50;;
65368;SDS011;51970;53.484;49.488;2022-10-24T02:37:13;10.00;;;4.70;;
65368;SDS011;51970;53.484;49.488;2022-10-24T02:39:41;15.20;;;8.85;;
65368;SDS011;51970;53.484;49.488;2022-10-24T02:42:11;13.35;;;9.15;;
65368;SDS011;51970;53.484;49.488;2022-10-24T02:44:39;13.07;;;9.25;;
65368;SDS011;51970;53.484;49.488;2022-10-24T02:47:06;13.35;;;9.25;;
65368;SDS011;51970;53.484;49.488;2022-10-24T02:49:37;18.67;;;10.15;;
65368;SDS011;51970;53.484;49.488;2022-10-24T02:52:04;16.85;;;9.27;;
65368;SDS011;51970;53.484;49.488;2022-10-24T02:54:31;12.93;;;9.00;;
65368;SDS011;51970;53.484;49.488;2022-10-24T02:56:58;13.07;;;9.70;;
65368;SDS011;51970;53.484;49.488;2022-10-24T02:59:27;16.00;;;9.75;;
65368;SDS011;51970;53.484;49.488;2022-10-24T03:01:53;17.35;;;10.02;;
65368;SDS011;51970;53.484;49.488;2022-10-24T03:04:19;12.43;;;9.73;;
65368;SDS011;51970;53.484;49.488;2022-10-24T03:06:45;14.23;;;11.38;;
65368;SDS011;51970;53.484;49.488;2022-10-24T03:09:11;19.02;;;9.52;;
65368;SDS011;51970;53.484;49.488;2022-10-24T03:11:37;19.05;;;10.55;;
65368;SDS011;51970;53.484;49.488;2022-10-24T03:14:03;15.90;;;9.20;;
65368;SDS011;51970;53.484;49.488;2022-10-24T03:16:30;13.48;;;9.55;;
65368;SDS011;51970;53.484;49.488;2022-10-24T03:18:56;15.80;;;6.20;;
65368;SDS011;51970;53.484;49.488;2022-10-24T03:21:22;11.20;;;5.78;;
65368;SDS011;51970;53.484;49.488;2022-10-24T03:23:48;12.38;;;9.25;;
65368;SDS011;51970;53.484;49.488;2022-10-24T03:26:15;14.80;;;9.95;;
65368;SDS011;51970;53.484;49.488;2022-10-24T03:28:41;12.90;;;9.13;;
65368;SDS011;51970;53.484;49.488;2022-10-24T03:31:07;12.00;;;9.05;;
65368;SDS011;51970;53.484;49.488;2022-10-24T03:33:33;15.60;;;10.48;;
65368;SDS011;51970;53.484;49.488;2022-10-24T03:35:59;14.38;;;9.32;;
65368;SDS011;51970;53.484;49.488;2022-10-24T03:38:27;16.48;;;9.93;;
65368;SDS011;51970;53.484;49.488;2022-10-24T03:40:53;16.25;;;9.40;;
65368;SDS011;51970;53.484;49.488;2022-10-24T03:43:19;17.95;;;10.10;;
65368;SDS011;51970;53.484;49.488;2022-10-24T03:45:45;13.93;;;9.50;;
65368;SDS011;51970;53.484;49.488;2022-10-24T03:48:11;14.65;;;9.60;;
65368;SDS011;51970;53.484;49.488;2022-10-24T03:50:37;12.48;;;9.68;;
65368;SDS011;51970;53.484;49.488;2022-10-24T03:53:05;15.73;;;10.70;;
65368;SDS011;51970;53.484;49.488;2022-10-24T03:55:32;14.75;;;10.60;;
65368;SDS011;51970;53.484;49.488;2022-10-24T03:57:58;13.23;;;9.30;;
65368;SDS011;51970;53.484;49.488;2022-10-24T04:00:24;12.80;;;6.15;;
65368;SDS011;51970;53.484;49.488;2022-10-24T04:02:53;11.90;;;8.40;;
65368;SDS011;51970;53.484;49.488;2022-10-24T04:05:19;14.50;;;5.85;;
65368;SDS011;51970;53.484;49.488;2022-10-24T04:07:45;13.18;;;9.10;;
65368;SDS011;51970;53.484;49.488;2022-10-24T04:10:11;11.77;;;9.07;;
65368;SDS011;51970;53.484;49.488;2022-10-24T04:12:39;14.20;;;9.82;;
65368;SDS011;51970;53.484;49.488;2022-10-24T04:15:09;13.75;;;9.90;;
65368;SDS011;51970;53.484;49.488;2022-10-24T04:17:40;13.43;;;10.07;;
65368;SDS011;51970;53.484;49.488;2022-10-24T04:20:07;13.00;;;9.52;;
65368;SDS011;51970;53.484;49.488;2022-10-24T04:22:34;15.18;;;9.45;;
65368;SDS011;51970;53.484;49.488;2022-10-24T04:25:02;14.88;;;8.98;;
65368;SDS011;51970;53.484;49.488;2022-10-24T04:28:01;12.15;;;9.05;;
65368;SDS011;51970;53.484;49.488;2022-10-24T04:30:27;12.43;;;8.10;;
65368;SDS011;51970;53.484;49.488;2022-10-24T04:32:56;14.70;;;10.30;;
65368;SDS011;51970;53.484;49.488;2022-10-24T04:35:46;18.70;;;8.45;;
65368;SDS011;51970;53.484;49.488;2022-10-24T04:38:12;13.90;;;9.55;;
65368;SDS011;51970;53.484;49.488;2022-10-24T04:40:38;13.63;;;8.35;;
65368;SDS011;51970;53.484;49.488;2022-10-24T04:43:04;19.27;;;9.68;;
65368;SDS011;51970;53.484;49.488;2022-10-24T04:45:31;14.00;;;9.65;;
65368;SDS011;51970;53.484;49.488;2022-10-24T04:48:01;11.55;;;8.05;;
65368;SDS011;51970;53.484;49.488;2022-10-24T04:50:29;14.25;;;10.43;;
65368;SDS011;51970;53.484;49.488;2022-10-24T04:52:56;11.30;;;8.40;;
65368;SDS011;51970;53.484;49.488;2022-10-24T04:55:23;14.82;;;11.32;;
65368;SDS011;51970;53.484;49.488;2022-10-24T04:57:49;14.50;;;9.98;;
65368;SDS011;51970;53.484;49.488;2022-10-24T05:00:20;12.80;;;9.60;;
65368;SDS011;51970;53.484;49.488;2022-10-24T05:02:59;12.93;;;9.43;;
65368;SDS011;51970;53.484;49.488;2022-10-24T05:05:26;13.15;;;8.77;;
65368;SDS011;51970;53.484;49.488;2022-10-24T05:07:52;11.38;;;7.53;;
65368;SDS011;51970;53.484;49.488;2022-10-24T05:10:18;17.85;;;9.32;;
65368;SDS011;51970;53.484;49.488;2022-10-24T05:12:44;11.25;;;8.65;;
65368;SDS011;51970;53.484;49.488;2022-10-24T05:15:10;17.90;;;8.02;;
65368;SDS011;51970;53.484;49.488;2022-10-24T05:17:38;16.60;;;9.82;;
65368;SDS011;51970;53.484;49.488;2022-10-24T05:20:06;14.60;;;8.50;;
65368;SDS011;51970;53.484;49.488;2022-10-24T05:22:34;11.15;;;8.50;;
65368;SDS011;51970;53.484;49.488;2022-10-24T05:25:01;12.82;;;7.78;;
65368;SDS011;51970;53.484;49.488;2022-10-24T05:27:30;16.65;;;8.40;;
65368;SDS011;51970;53.484;49.488;2022-10-24T05:29:57;10.75;;;7.82;;
65368;SDS011;51970;53.484;49.488;2022-10-24T05:32:24;18.75;;;8.82;;
65368;SDS011;51970;53.484;49.488;2022-10-24T05:34:52;22.00;;;8.60;;
65368;SDS011;51970;53.484;49.488;2022-10-24T05:37:18;12.32;;;8.90;;
65368;SDS011;51970;53.484;49.488;2022-10-24T05:39:46;16.83;;;8.50;;
65368;SDS011;51970;53.484;49.488;2022-10-24T05:42:24;11.10;;;5.72;;
65368;SDS011;51970;53.484;49.488;2022-10-24T05:44:50;22.58;;;9.68;;
65368;SDS011;51970;53.484;49.488;2022-10-24T05:47:18;18.10;;;7.38;;
65368;SDS011;51970;53.484;49.488;2022-10-24T05:49:45;13.85;;;7.65;;
65368;SDS011;51970;53.484;49.488;2022-10-24T05:52:11;14.48;;;7.88;;
65368;SDS011;51970;53.484;49.488;2022-10-24T05:54:46;17.35;;;9.35;;
65368;SDS011;51970;53.484;49.488;2022-10-24T05:57:13;30.77;;;9.40;;
65368;SDS011;51970;53.484;49.488;2022-10-24T05:59:39;20.77;;;6.68;;
65368;SDS011;51970;53.484;49.488;2022-10-24T06:02:05;16.92;;;7.88;;
65368;SDS011;51970;53.484;49.488;2022-10-24T06:04:42;13.52;;;8.10;;
65368;SDS011;51970;53.484;49.488;2022-10-24T06:07:09;14.25;;;8.55;;
65368;SDS011;51970;53.484;49.488;2022-10-24T06:09:42;14.82;;;8.88;;
65368;SDS011;51970;53.484;49.488;2022-10-24T06:12:09;14.65;;;7.95;;
65368;SDS011;51970;53.484;49.488;2022-10-24T06:14:42;14.18;;;8.10;;
65368;SDS011;51970;53.484;49.488;2022-10-24T06:17:10;14.20;;;8.10;;
65368;SDS011;51970;53.484;49.488;2022-10-24T06:19:38;11.05;;;8.20;;
65368;SDS011;51970;53.484;49.488;2022-10-24T06:22:04;15.13;;;7.97;;
65368;SDS011;51970;53.484;49.488;2022-10-24T06:25:22;13.13;;;9.35;;
65368;SDS011;51970;53.484;49.488;2022-10-24T06:27:54;14.23;;;8.10;;
65368;SDS011;51970;53.484;49.488;2022-10-24T06:30:37;19.95;;;9.02;;
65368;SDS011;51970;53.484;49.488;2022-10-24T06:33:04;9.80;;;5.72;;
65368;SDS011;51970;53.484;49.488;2022-10-24T06:35:30;17.48;;;8.23;;
65368;SDS011;51970;53.484;49.488;2022-10-24T06:37:57;13.02;;;8.77;;
65368;SDS011;51970;53.484;49.488;2022-10-24T06:40:23;11.27;;;7.90;;
65368;SDS011;51970;53.484;49.488;2022-10-24T06:43:10;15.35;;;5.25;;
65368;SDS011;51970;53.484;49.488;2022-10-24T06:45:56;21.02;;;9.98;;
65368;SDS011;51970;53.484;49.488;2022-10-24T06:48:23;15.25;;;8.18;;
65368;SDS011;51970;53.484;49.488;2022-10-24T06:50:50;15.35;;;8.27;;
65368;SDS011;51970;53.484;49.488;2022-10-24T06:53:21;10.57;;;7.28;;
65368;SDS011;51970;53.484;49.488;2022-10-24T06:55:50;11.52;;;8.30;;
65368;SDS011;51970;53.484;49.488;2022-10-24T06:58:19;15.02;;;8.52;;
65368;SDS011;51970;53.484;49.488;2022-10-24T07:00:45;19.13;;;5.95;;
65368;SDS011;51970;53.484;49.488;2022-10-24T07:03:13;13.18;;;8.77;;
65368;SDS011;51970;53.484;49.488;2022-10-24T07:05:43;11.57;;;8.10;;
65368;SDS011;51970;53.484;49.488;2022-10-24T07:08:09;9.25;;;7.38;;
65368;SDS011;51970;53.484;49.488;2022-10-24T07:10:36;15.85;;;7.18;;
65368;SDS011;51970;53.484;49.488;2022-10-24T07:13:03;13.43;;;8.77;;
65368;SDS011;51970;53.484;49.488;2022-10-24T07:15:30;13.13;;;7.75;;
65368;SDS011;51970;53.484;49.488;2022-10-24T07:17:56;12.32;;;7.97;;
65368;SDS011;51970;53.484;49.488;2022-10-24T07:20:25;13.43;;;9.52;;
65368;SDS011;51970;53.484;49.488;2022-10-24T07:22:51;14.95;;;8.00;;
65368;SDS011;51970;53.484;49.488;2022-10-24T07:25:17;19.13;;;8.45;;
65368;SDS011;51970;53.484;49.488;2022-10-24T07:27:44;19.25;;;9.52;;
65368;SDS011;51970;53.484;49.488;2022-10-24T07:30:12;16.30;;;7.63;;
65368;SDS011;51970;53.484;49.488;2022-10-24T07:32:42;14.40;;;8.77;;
65368;SDS011;51970;53.484;49.488;2022-10-24T07:35:10;35.80;;;8.57;;
65368;SDS011;51970;53.484;49.488;2022-10-24T07:37:37;25.92;;;7.85;;
65368;SDS011;51970;53.484;49.488;2022-10-24T07:40:03;18.65;;;9.25;;
65368;SDS011;51970;53.484;49.488;2022-10-24T07:42:29;16.77;;;8.75;;
65368;SDS011;51970;53.484;49.488;2022-10-24T07:44:55;16.88;;;9.32;;
65368;SDS011;51970;53.484;49.488;2022-10-24T07:47:21;12.75;;;8.43;;
65368;SDS011;51970;53.484;49.488;2022-10-24T07:49:47;11.70;;;7.00;;
65368;SDS011;51970;53.484;49.488;2022-10-24T07:52:13;12.82;;;8.70;;
65368;SDS011;51970;53.484;49.488;2022-10-24T07:54:39;33.90;;;8.55;;
65368;SDS011;51970;53.484;49.488;2022-10-24T07:57:06;15.13;;;8.45;;
65368;SDS011;51970;53.484;49.488;2022-10-24T07:59:32;11.95;;;8.75;;
65368;SDS011;51970;53.484;49.488;2022-10-24T08:01:58;18.30;;;9.45;;
65368;SDS011;51970;53.484;49.488;2022-10-24T08:04:24;9.82;;;5.47;;
65368;SDS011;51970;53.484;49.488;2022-10-24T08:06:50;12.65;;;8.57;;
65368;SDS011;51970;53.484;49.488;2022-10-24T08:09:16;10.73;;;7.63;;
65368;SDS011;51970;53.484;49.488;2022-10-24T08:11:43;19.00;;;9.13;;
65368;SDS011;51970;53.484;49.488;2022-10-24T08:14:10;10.05;;;7.35;;
65368;SDS011;51970;53.484;49.488;2022-10-24T08:16:36;11.82;;;8.50;;
65368;SDS011;51970;53.484;49.488;2022-10-24T08:19:06;17.65;;;9.05;;
65368;SDS011;51970;53.484;49.488;2022-10-24T08:21:34;11.95;;;8.25;;
65368;SDS011;51970;53.484;49.488;2022-10-24T08:24:01;13.15;;;8.82;;
65368;SDS011;51970;53.484;49.488;2022-10-24T08:26:27;14.40;;;9.90;;
65368;SDS011;51970;53.484;49.488;2022-10-24T08:28:54;12.20;;;7.95;;
65368;SDS011;51970;53.484;49.488;2022-10-24T08:31:21;15.25;;;8.73;;
65368;SDS011;51970;53.484;49.488;2022-10-24T08:33:50;12.55;;;8.13;;
65368;SDS011;51970;53.484;49.488;2022-10-24T08:36:26;10.38;;;7.63;;
65368;SDS011;51970;53.484;49.488;2022-10-24T08:38:54;12.75;;;8.43;;
65368;SDS011;51970;53.484;49.488;2022-10-24T08:41:46;10.32;;;7.57;;
65368;SDS011;51970;53.484;49.488;2022-10-24T08:46:50;11.43;;;8.40;;
65368;SDS011;51970;53.484;49.488;2022-10-24T08:49:46;13.57;;;8.43;;
65368;SDS011;51970;53.484;49.488;2022-10-24T08:52:25;12.82;;;7.80;;
65368;SDS011;51970;53.484;49.488;2022-10-24T08:54:57;9.95;;;7.00;;
65368;SDS011;51970;53.484;49.488;2022-10-24T08:57:31;12.43;;;8.52;;
65368;SDS011;51970;53.484;49.488;2022-10-24T09:00:02;14.25;;;9.00;;
65368;SDS011;51970;53.484;49.488;2022-10-24T09:02:38;14.25;;;9.52;;
65368;SDS011;51970;53.484;49.488;2022-10-24T09:07:43;11.95;;;7.88;;
65368;SDS011;51970;53.484;49.488;2022-10-24T09:10:15;9.80;;;4.97;;
65368;SDS011;51970;53.484;49.488;2022-10-24T09:12:55;11.32;;;8.27;;
65368;SDS011;51970;53.484;49.488;2022-10-24T09:15:25;14.05;;;8.63;;
65368;SDS011;51970;53.484;49.488;2022-10-24T09:17:57;9.10;;;4.63;;
65368;SDS011;51970;53.484;49.488;2022-10-24T09:20:29;16.38;;;11.02;;
65368;SDS011;51970;53.484;49.488;2022-10-24T09:22:59;14.88;;;8.20;;
65368;SDS011;51970;53.484;49.488;2022-10-24T09:25:28;10.85;;;5.18;;
65368;SDS011;51970;53.484;49.488;2022-10-24T09:27:58;17.80;;;8.55;;
65368;SDS011;51970;53.484;49.488;2022-10-24T09:30:33;10.93;;;7.88;;
65368;SDS011;51970;53.484;49.488;2022-10-24T09:35:50;13.88;;;8.02;;
65368;SDS011;51970;53.484;49.488;2022-10-24T09:38:33;12.10;;;9.35;;
65368;SDS011;51970;53.484;49.488;2022-10-24T09:41:14;11.52;;;8.38;;
65368;SDS011;51970;53.484;49.488;2022-10-24T09:43:53;11.32;;;6.60;;
65368;SDS011;51970;53.484;49.488;2022-10-24T09:46:25;13.52;;;9.15;;
65368;SDS011;51970;53.484;49.488;2022-10-24T09:51:44;13.00;;;8.98;;
65368;SDS011;51970;53.484;49.488;2022-10-24T09:56:46;15.57;;;9.50;;
65368;SDS011;51970;53.484;49.488;2022-10-24T09:59:32;13.57;;;6.63;;
65368;SDS011;51970;53.484;49.488;2022-10-24T10:02:16;12.15;;;8.30;;
65368;SDS011;51970;53.484;49.488;2022-10-24T10:04:48;12.63;;;9.55;;
65368;SDS011;51970;53.484;49.488;2022-10-24T10:07:29;14.55;;;10.27;;
65368;SDS011;51970;53.484;49.488;2022-10-24T10:10:21;14.13;;;9.77;;
65368;SDS011;51970;53.484;49.488;2022-10-24T10:13:02;10.68;;;5.63;;
65368;SDS011;51970;53.484;49.488;2022-10-24T10:15:53;12.68;;;9.10;;
65368;SDS011;51970;53.484;49.488;2022-10-24T10:18:33;17.20;;;8.73;;
65368;SDS011;51970;53.484;49.488;2022-10-24T10:21:50;16.38;;;11.25;;
65368;SDS011;51970;53.484;49.488;2022-10-24T10:27:23;15.15;;;10.90;;
65368;SDS011;51970;53.484;49.488;2022-10-24T10:32:43;16.48;;;10.80;;
65368;SDS011;51970;53.484;49.488;2022-10-24T10:35:25;15.40;;;9.23;;
65368;SDS011;51970;53.484;49.488;2022-10-24T10:38:38;13.63;;;10.18;;
65368;SDS011;51970;53.484;49.488;2022-10-24T10:47:31;14.68;;;10.40;;
65368;SDS011;51970;53.484;49.488;2022-10-24T10:53:24;14.98;;;11.07;;
65368;SDS011;51970;53.484;49.488;2022-10-24T11:05:40;12.38;;;7.57;;
65368;SDS011;51970;53.484;49.488;2022-10-24T11:11:35;15.15;;;9.55;;
65368;SDS011;51970;53.484;49.488;2022-10-24T11:14:37;13.63;;;9.95;;
65368;SDS011;51970;53.484;49.488;2022-10-24T11:17:23;15.00;;;10.45;;
65368;SDS011;51970;53.484;49.488;2022-10-24T11:20:04;15.65;;;10.10;;
65368;SDS011;51970;53.484;49.488;2022-10-24T11:22:35;11.88;;;8.43;;
65368;SDS011;51970;53.484;49.488;2022-10-24T11:31:13;16.00;;;10.25;;
65368;SDS011;51970;53.484;49.488;2022-10-24T11:33:57;16.05;;;10.55;;
65368;SDS011;51970;53.484;49.488;2022-10-24T11:39:01;14.30;;;9.82;;
65368;SDS011;51970;53.484;49.488;2022-10-24T11:41:47;14.35;;;9.77;;
65368;SDS011;51970;53.484;49.488;2022-10-24T11:44:36;14.15;;;10.18;;
65368;SDS011;51970;53.484;49.488;2022-10-24T11:52:46;15.02;;;11.52;;
65368;SDS011;51970;53.484;49.488;2022-10-24T11:55:20;15.05;;;11.65;;
65368;SDS011;51970;53.484;49.488;2022-10-24T11:58:01;16.50;;;11.15;;
65368;SDS011;51970;53.484;49.488;2022-10-24T12:00:53;13.77;;;10.27;;
65368;SDS011;51970;53.484;49.488;2022-10-24T12:06:48;16.98;;;12.77;;
65368;SDS011;51970;53.484;49.488;2022-10-24T12:09:44;15.95;;;10.80;;
65368;SDS011;51970;53.484;49.488;2022-10-24T12:12:44;14.70;;;8.57;;
65368;SDS011;51970;53.484;49.488;2022-10-24T12:18:29;11.35;;;8.73;;
65368;SDS011;51970;53.484;49.488;2022-10-24T12:21:13;10.27;;;6.22;;
65368;SDS011;51970;53.484;49.488;2022-10-24T12:23:42;12.85;;;9.73;;
65368;SDS011;51970;53.484;49.488;2022-10-24T12:26:24;12.95;;;9.35;;
65368;SDS011;51970;53.484;49.488;2022-10-24T12:28:57;13.20;;;9.35;;
65368;SDS011;51970;53.484;49.488;2022-10-24T12:31:29;15.60;;;10.20;;
65368;SDS011;51970;53.484;49.488;2022-10-24T12:50:55;10.32;;;8.70;;
65368;SDS011;51970;53.484;49.488;2022-10-24T12:53:31;11.48;;;8.52;;
65368;SDS011;51970;53.484;49.488;2022-10-24T13:01:07;10.02;;;6.38;;
65368;SDS011;51970;53.484;49.488;2022-10-24T13:03:49;9.82;;;7.22;;
65368;SDS011;51970;53.484;49.488;2022-10-24T13:06:35;10.55;;;8.07;;
65368;SDS011;51970;53.484;49.488;2022-10-24T13:21:07;10.35;;;6.93;;
65368;SDS011;51970;53.484;49.488;2022-10-24T13:23:37;9.35;;;4.68;;
65368;SDS011;51970;53.484;49.488;2022-10-24T13:26:04;10.55;;;7.80;;
65368;SDS011;51970;53.484;49.488;2022-10-24T13:28:36;10.85;;;7.70;;
65368;SDS011;51970;53.484;49.488;2022-10-24T13:38:38;9.98;;;7.15;;
65368;SDS011;51970;53.484;49.488;2022-10-24T13:41:08;12.88;;;8.25;;
65368;SDS011;51970;53.484;49.488;2022-10-24T13:43:37;10.10;;;7.40;;
65368;SDS011;51970;53.484;49.488;2022-10-24T13:46:09;10.65;;;8.55;;
65368;SDS011;51970;53.484;49.488;2022-10-24T13:48:44;9.43;;;7.60;;
65368;SDS011;51970;53.484;49.488;2022-10-24T13:51:20;10.02;;;7.55;;
65368;SDS011;51970;53.484;49.488;2022-10-24T13:53:57;9.55;;;7.32;;
65368;SDS011;51970;53.484;49.488;2022-10-24T13:56:26;10.98;;;8.02;;
65368;SDS011;51970;53.484;49.488;2022-10-24T13:58:59;10.13;;;8.07;;
65368;SDS011;51970;53.484;49.488;2022-10-24T14:01:27;9.60;;;7.20;;
65368;SDS011;51970;53.484;49.488;2022-10-24T14:03:57;8.68;;;6.40;;
65368;SDS011;51970;53.484;49.488;2022-10-24T14:06:26;10.65;;;8.27;;
65368;SDS011;51970;53.484;49.488;2022-10-24T14:11:26;8.98;;;6.28;;
65368;SDS011;51970;53.484;49.488;2022-10-24T14:13:56;8.57;;;6.25;;
65368;SDS011;51970;53.484;49.488;2022-10-24T14:16:29;7.80;;;4.20;;
65368;SDS011;51970;53.484;49.488;2022-10-24T14:21:46;9.52;;;6.03;;
65368;SDS011;51970;53.484;49.488;2022-10-24T14:24:13;7.35;;;5.65;;
65368;SDS011;51970;53.484;49.488;2022-10-24T14:26:43;8.80;;;6.47;;
65368;SDS011;51970;53.484;49.488;2022-10-24T14:29:29;8.02;;;5.95;;
65368;SDS011;51970;53.484;49.488;2022-10-24T14:32:04;8.05;;;6.38;;
65368;SDS011;51970;53.484;49.488;2022-10-24T14:34:32;9.25;;;6.18;;
65368;SDS011;51970;53.484;49.488;2022-10-24T14:37:05;8.18;;;6.07;;
65368;SDS011;51970;53.484;49.488;2022-10-24T14:39:34;7.38;;;5.95;;
65368;SDS011;51970;53.484;49.488;2022-10-24T14:42:03;9.05;;;6.55;;
65368;SDS011;51970;53.484;49.488;2022-10-24T14:44:33;8.00;;;6.25;;
65368;SDS011;51970;53.484;49.488;2022-10-24T14:47:03;7.82;;;5.70;;
65368;SDS011;51970;53.484;49.488;2022-10-24T14:49:39;5.32;;;2.58;;
65368;SDS011;51970;53.484;49.488;2022-10-24T14:54:40;7.38;;;5.80;;
65368;SDS011;51970;53.484;49.488;2022-10-24T14:57:15;6.85;;;5.40;;
65368;SDS011;51970;53.484;49.488;2022-10-24T14:59:50;5.10;;;2.05;;
65368;SDS011;51970;53.484;49.488;2022-10-24T15:02:37;7.57;;;5.07;;
65368;SDS011;51970;53.484;49.488;2022-10-24T15:05:30;7.43;;;5.97;;
65368;SDS011;51970;53.484;49.488;2022-10-24T15:08:36;7.30;;;5.25;;
65368;SDS011;51970;53.484;49.488;2022-10-24T15:11:06;6.88;;;5.47;;
65368;SDS011;51970;53.484;49.488;2022-10-24T15:13:45;7.50;;;4.70;;
65368;SDS011;51970;53.484;49.488;2022-10-24T15:16:17;8.23;;;7.00;;
65368;SDS011;51970;53.484;49.488;2022-10-24T15:18:54;8.05;;;5.22;;
65368;SDS011;51970;53.484;49.488;2022-10-24T15:21:26;7.57;;;5.05;;
65368;SDS011;51970;53.484;49.488;2022-10-24T15:24:01;7.47;;;5.15;;
65368;SDS011;51970;53.484;49.488;2022-10-24T15:26:33;10.60;;;6.32;;
65368;SDS011;51970;53.484;49.488;2022-10-24T15:31:42;7.60;;;6.35;;
65368;SDS011;51970;53.484;49.488;2022-10-24T15:34:14;7.82;;;5.40;;
65368;SDS011;51970;53.484;49.488;2022-10-24T15:36:46;8.15;;;6.05;;
65368;SDS011;51970;53.484;49.488;2022-10-24T15:39:14;7.97;;;5.78;;
65368;SDS011;51970;53.484;49.488;2022-10-24T15:41:42;9.05;;;7.47;;
65368;SDS011;51970;53.484;49.488;2022-10-24T15:44:22;7.05;;;5.68;;
65368;SDS011;51970;53.484;49.488;2022-10-24T15:46:53;8.50;;;6.75;;
65368;SDS011;51970;53.484;49.488;2022-10-24T15:49:21;10.55;;;6.28;;
65368;SDS011;51970;53.484;49.488;2022-10-24T15:51:48;7.32;;;5.55;;
65368;SDS011;51970;53.484;49.488;2022-10-24T15:54:16;9.80;;;6.75;;
65368;SDS011;51970;53.484;49.488;2022-10-24T15:56:46;7.80;;;6.47;;
65368;SDS011;51970;53.484;49.488;2022-10-24T15:59:13;7.30;;;5.55;;
65368;SDS011;51970;53.484;49.488;2022-10-24T16:01:51;8.95;;;6.30;;
65368;SDS011;51970;53.484;49.488;2022-10-24T16:04:24;12.32;;;6.07;;
65368;SDS011;51970;53.484;49.488;2022-10-24T16:06:52;8.07;;;5.63;;
65368;SDS011;51970;53.484;49.488;2022-10-24T16:09:22;8.02;;;6.10;;
65368;SDS011;51970;53.484;49.488;2022-10-24T16:11:52;6.30;;;3.13;;
65368;SDS011;51970;53.484;49.488;2022-10-24T16:14:19;8.60;;;5.85;;
65368;SDS011;51970;53.484;49.488;2022-10-24T16:16:53;9.35;;;5.97;;
65368;SDS011;51970;53.484;49.488;2022-10-24T16:19:19;7.35;;;5.57;;
65368;SDS011;51970;53.484;49.488;2022-10-24T16:21:48;8.00;;;6.00;;
65368;SDS011;51970;53.484;49.488;2022-10-24T16:24:15;8.15;;;6.53;;
65368;SDS011;51970;53.484;49.488;2022-10-24T16:26:46;8.25;;;5.75;;
65368;SDS011;51970;53.484;49.488;2022-10-24T16:29:17;6.38;;;2.83;;
65368;SDS011;51970;53.484;49.488;2022-10-24T16:32:08;9.90;;;7.68;;
65368;SDS011;51970;53.484;49.488;2022-10-24T16:34:40;8.55;;;5.32;;
65368;SDS011;51970;53.484;49.488;2022-10-24T16:37:21;8.77;;;5.72;;
65368;SDS011;51970;53.484;49.488;2022-10-24T16:39:47;7.90;;;5.70;;
65368;SDS011;51970;53.484;49.488;2022-10-24T16:42:14;9.38;;;6.13;;
65368;SDS011;51970;53.484;49.488;2022-10-24T16:44:47;8.63;;;6.20;;
65368;SDS011;51970;53.484;49.488;2022-10-24T16:47:14;8.50;;;6.40;;
65368;SDS011;51970;53.484;49.488;2022-10-24T16:49:43;8.27;;;6.60;;
65368;SDS011;51970;53.484;49.488;2022-10-24T16:52:11;7.40;;;4.72;;
65368;SDS011;51970;53.484;49.488;2022-10-24T16:54:38;8.90;;;6.68;;
65368;SDS011;51970;53.484;49.488;2022-10-24T16:57:07;8.73;;;6.80;;
65368;SDS011;51970;53.484;49.488;2022-10-24T17:00:03;7.80;;;6.00;;
65368;SDS011;51970;53.484;49.488;2022-10-24T17:02:59;8.52;;;6.43;;
65368;SDS011;51970;53.484;49.488;2022-10-24T17:05:29;7.82;;;6.00;;
65368;SDS011;51970;53.484;49.488;2022-10-24T17:07:55;9.20;;;6.68;;
65368;SDS011;51970;53.484;49.488;2022-10-24T17:10:22;6.78;;;3.42;;
65368;SDS011;51970;53.484;49.488;2022-10-24T17:12:48;7.90;;;5.88;;